Home > Products > Valid Products > MTR

000
SAUS45 KABQ 301154
MTRTCS
METAR KTCS 301153Z AUTO 24003KT 10SM CLR 21/14 A3018 RMK AO2 SLP123
60002 70002 T02060144 10272 20206 55007 TSNO





000
SAUS45 KABQ 301154
MTRCQC
METAR KCQC 301153Z AUTO 09003KT 10SM CLR 14/09 A3036 RMK AO2 SLP190
T01390089 10167 20128 55000





000
SAUS45 KABQ 301154
MTRCQC
METAR KCQC 301153Z AUTO 09003KT 10SM CLR 14/09 A3036 RMK AO2 SLP190
T01390089 10167 20128 55000





000
SAUS45 KABQ 301154
MTRTCS
METAR KTCS 301153Z AUTO 24003KT 10SM CLR 21/14 A3018 RMK AO2 SLP123
60002 70002 T02060144 10272 20206 55007 TSNO





000
SAUS45 KABQ 301054
MTRTCS
METAR KTCS 301053Z AUTO 30007KT 10SM CLR 22/14 A3017 RMK AO2 SLP117
T02170144 TSNO





000
SAUS45 KABQ 301054
MTRCQC
METAR KCQC 301053Z AUTO 05005KT 10SM CLR 14/09 A3034 RMK AO2 SLP178
T01440089





000
SAUS45 KABQ 301054
MTRTCS
METAR KTCS 301053Z AUTO 30007KT 10SM CLR 22/14 A3017 RMK AO2 SLP117
T02170144 TSNO





000
SAUS45 KABQ 301054
MTRCQC
METAR KCQC 301053Z AUTO 05005KT 10SM CLR 14/09 A3034 RMK AO2 SLP178
T01440089





000
SAUS45 KABQ 300954
MTRTCS
METAR KTCS 300953Z AUTO 30007KT 10SM SCT110 21/16 A3018 RMK AO2
RAE09 SLP123 P0000 T02110161 TSNO





000
SAUS45 KABQ 300954
MTRCQC
METAR KCQC 300953Z AUTO 08004KT 10SM CLR 15/09 A3035 RMK AO2 SLP177
T01500094





000
SAUS45 KABQ 300857 COR
MTRCQC
METAR KCQC 300853Z AUTO 08007KT 10SM OVC100 16/09 A3036 RMK AO2
SLP182 T01610094 50001





000
SAUS45 KABQ 300857 COR
MTRCQC
METAR KCQC 300853Z AUTO 08007KT 10SM OVC100 16/09 A3036 RMK AO2
SLP182 T01610094 50001





000
SAUS45 KABQ 300854
MTRTCS
METAR KTCS 300853Z AUTO 09005KT 10SM -RA BKN090 OVC110 21/16 A3020
RMK AO2 RAB29 SLP132 P0002 60002 T02060161 53014 TSNO





000
SAUS45 KABQ 300854 COR
MTRCQC
METAR KCQC 300853Z AUTO 08007KT 10SM OVC100 16/09 A3036 RMK AO2
SLP182 T01610094 50001





000
SAUS45 KABQ 300854 COR
MTRCQC
METAR KCQC 300853Z AUTO 08007KT 10SM OVC100 16/09 A3036 RMK AO2
SLP182 T01610094 50001





000
SAUS45 KABQ 300854
MTRTCS
METAR KTCS 300853Z AUTO 09005KT 10SM -RA BKN090 OVC110 21/16 A3020
RMK AO2 RAB29 SLP132 P0002 60002 T02060161 53014 TSNO





000
SAUS45 KABQ 300853
MTRCQC
METAR KCQC 300853Z AUTO 08007KT 10SM OVC100 16/09 A3036 RMK AO2
SLP182 T01610094 50001





000
SAUS45 KABQ 300853
MTRCQC
METAR KCQC 300853Z AUTO 08007KT 10SM OVC100 16/09 A3036 RMK AO2
SLP182 T01610094 50001





000
SAUS45 KABQ 300755
MTRCQC
METAR KCQC 300753Z AUTO 08007KT 10SM SCT095 15/09 A3036 RMK AO2
SLP183 T01500094





000
SAUS45 KABQ 300754
MTRTCS
METAR KTCS 300753Z AUTO 29003KT 10SM BKN100 25/11 A3016 RMK AO2
SLP113 T02500106 TSNO





000
SAUS45 KABQ 300655
MTRTCS
METAR KTCS 300653Z AUTO 21007KT 10SM FEW100 27/10 A3016 RMK AO2
SLP113 T02670100 403610200 TSNO





000
SAUS45 KABQ 300654
MTRCQC
METAR KCQC 300653Z AUTO 08010KT 10SM BKN100 16/09 A3036 RMK AO2
SLP176 T01610094 402720156





000
SAUS45 KABQ 300554
MTRCQC
METAR KCQC 300553Z AUTO 08006KT 10SM OVC100 16/10 A3036 RMK AO2
SLP178 T01610100 10222 20156 50009





000
SAUS45 KABQ 300554
MTRCQC
METAR KCQC 300553Z AUTO 08006KT 10SM OVC100 16/10 A3036 RMK AO2
SLP178 T01610100 10222 20156 50009





000
SAUS45 KABQ 300554
MTRTCS
METAR KTCS 300553Z AUTO 14010KT 10SM CLR 27/10 A3015 RMK AO2 SLP112
60000 T02720100 10350 20272 51024 TSNO





000
SAUS45 KABQ 300554
MTRTCS
METAR KTCS 300553Z AUTO 14010KT 10SM CLR 27/10 A3015 RMK AO2 SLP112
60000 T02720100 10350 20272 51024 TSNO





000
SAUS45 KABQ 300455
MTRCQC
METAR KCQC 300453Z AUTO 08008KT 10SM OVC100 17/11 A3036 RMK AO2
SLP180 T01670106





000
SAUS45 KABQ 300455
MTRCQC
METAR KCQC 300453Z AUTO 08008KT 10SM OVC100 17/11 A3036 RMK AO2
SLP180 T01670106





000
SAUS45 KABQ 300454
MTRTCS
METAR KTCS 300453Z AUTO 04006G15KT 10SM FEW075 SCT110 28/11 A3013
RMK AO2 RAB34E44 PRESRR SLP105 P0000 T02830106 TSNO





000
SAUS45 KABQ 300354
MTRCQC
METAR KCQC 300353Z AUTO 08009KT 10SM BKN100 BKN120 17/11 A3035 RMK
AO2 SLP179 T01670106





000
SAUS45 KABQ 300354
MTRTCS
METAR KTCS 300353Z AUTO 11007KT 10SM CLR 28/11 A3011 RMK AO2 SLP101
T02780106 TSNO





000
SAUS45 KABQ 300354
MTRCQC
METAR KCQC 300353Z AUTO 08009KT 10SM BKN100 BKN120 17/11 A3035 RMK
AO2 SLP179 T01670106





000
SAUS45 KABQ 300354
MTRTCS
METAR KTCS 300353Z AUTO 11007KT 10SM CLR 28/11 A3011 RMK AO2 SLP101
T02780106 TSNO





000
SAUS45 KABQ 300254
MTRTCS
METAR KTCS 300253Z AUTO 12005KT 10SM CLR 29/09 A3007 RMK AO2 SLP086
T02940094 53008 TSNO





000
SAUS45 KABQ 300254
MTRTCS
METAR KTCS 300253Z AUTO 12005KT 10SM CLR 29/09 A3007 RMK AO2 SLP086
T02940094 53008 TSNO





000
SAUS45 KABQ 300254
MTRCQC
METAR KCQC 300253Z AUTO 09008KT 10SM CLR 17/11 A3033 RMK AO2 SLP172
T01670106 50009





000
SAUS45 KABQ 300254
MTRCQC
METAR KCQC 300253Z AUTO 09008KT 10SM CLR 17/11 A3033 RMK AO2 SLP172
T01670106 50009





000
SAUS45 KABQ 300154
MTRCQC
METAR KCQC 300153Z AUTO 10014KT 10SM FEW100 18/10 A3033 RMK AO2
SLP172 T01780100





000
SAUS45 KABQ 300154
MTRTCS
METAR KTCS 300153Z AUTO 13010KT 10SM CLR 31/08 A3006 RMK AO2 SLP083
T03110083 TSNO





000
SAUS45 KABQ 300058 COR
MTRCQC
METAR KCQC 300053Z AUTO 10014KT 10SM FEW090 SCT110 20/11 A3032 RMK
AO2 PK WND 08026/0030 SLP170 T02000106





000
SAUS45 KABQ 300056 COR
MTRCQC
METAR KCQC 300053Z AUTO 10014KT 10SM FEW090 SCT110 20/11 A3032 RMK
AO2 PK WND 08026/0030 SLP170 T02000106





000
SAUS45 KABQ 300055 COR
MTRCQC
METAR KCQC 300053Z AUTO 10014KT 10SM FEW090 SCT110 20/11 A3032 RMK
AO2 PK WND 08026/0030 SLP170 T02000106





000
SAUS45 KABQ 300055 COR
MTRCQC
METAR KCQC 300053Z AUTO 10014KT 10SM FEW090 SCT110 20/11 A3032 RMK
AO2 PK WND 08026/0030 SLP170 T02000106





000
SAUS45 KABQ 300054
MTRCQC
METAR KCQC 300053Z AUTO 10014KT 10SM FEW090 SCT110 20/11 A3032 RMK
AO2 PK WND 08026/0030 SLP170 T02000106





000
SAUS45 KABQ 300054
MTRTCS
METAR KTCS 300053Z AUTO 12012KT 10SM CLR 32/09 A3005 RMK AO2 SLP082
T03170094 TSNO





000
SAUS45 KABQ 300054
MTRCQC
METAR KCQC 300053Z AUTO 10014KT 10SM FEW090 SCT110 20/11 A3032 RMK
AO2 PK WND 08026/0030 SLP170 T02000106





000
SAUS45 KABQ 300054
MTRTCS
METAR KTCS 300053Z AUTO 12012KT 10SM CLR 32/09 A3005 RMK AO2 SLP082
T03170094 TSNO





000
SAUS45 KABQ 300001 COR
MTRCQC
METAR KCQC 292353Z AUTO 08010KT 10SM CLR 22/09 A3029 RMK AO2 SLP160
60000 T02220094 10272 20217 55006





000
SAUS45 KABQ 300001 COR
MTRCQC
METAR KCQC 292353Z AUTO 08010KT 10SM CLR 22/09 A3029 RMK AO2 SLP160
60000 T02220094 10272 20217 55006





000
SAUS45 KABQ 292359 COR
MTRCQC
METAR KCQC 292353Z AUTO 08010KT 10SM CLR 22/09 A3029 RMK AO2 SLP160
60000 T02220094 10272 20217 55006





000
SAUS45 KABQ 292359 COR
MTRCQC
METAR KCQC 292353Z AUTO 08010KT 10SM CLR 22/09 A3029 RMK AO2 SLP160
60000 T02220094 10272 20217 55006





000
SAUS45 KABQ 292358 COR
MTRCQC
METAR KCQC 292353Z AUTO 08010KT 10SM CLR 22/09 A3029 RMK AO2 SLP160
60000 T02220094 10272 20217 55006





000
SAUS45 KABQ 292358 COR
MTRCQC
METAR KCQC 292353Z AUTO 08010KT 10SM CLR 22/09 A3029 RMK AO2 SLP160
60000 T02220094 10272 20217 55006





000
SAUS45 KABQ 292356 COR
MTRCQC
METAR KCQC 292353Z AUTO 08010KT 10SM CLR 22/09 A3029 RMK AO2 SLP160
60000 T02220094 10272 20217 55006





000
SAUS45 KABQ 292356 COR
MTRCQC
METAR KCQC 292353Z AUTO 08010KT 10SM CLR 22/09 A3029 RMK AO2 SLP160
60000 T02220094 10272 20217 55006





000
SAUS45 KABQ 292355 COR
MTRCQC
METAR KCQC 292353Z AUTO 08010KT 10SM CLR 22/09 A3029 RMK AO2 SLP160
60000 T02220094 10272 20217 55006





000
SAUS45 KABQ 292354
MTRCQC
METAR KCQC 292353Z AUTO 08010KT 10SM CLR 22/09 A3029 RMK AO2 SLP160
60000 T02220094 10272 20217 55006





000
SAUS45 KABQ 292354
MTRTCS
METAR KTCS 292353Z AUTO 11011G17KT 10SM CLR 35/07 A3004 RMK AO2
SLP075 T03500072 10361 20300 56017 TSNO





000
SAUS45 KABQ 292254
MTRTCS
METAR KTCS 292253Z AUTO 12010G17KT 10SM FEW110 34/07 A3007 RMK AO2
SLP083 T03440067 TSNO





000
SAUS45 KABQ 292254
MTRCQC
METAR KCQC 292253Z AUTO 11006KT 10SM FEW120 24/10 A3027 RMK AO2
SLP145 T02390100





000
SAUS45 KABQ 292254
MTRTCS
METAR KTCS 292253Z AUTO 12010G17KT 10SM FEW110 34/07 A3007 RMK AO2
SLP083 T03440067 TSNO





000
SAUS45 KABQ 292254
MTRCQC
METAR KCQC 292253Z AUTO 11006KT 10SM FEW120 24/10 A3027 RMK AO2
SLP145 T02390100





000
SAUS45 KABQ 292154
MTRCQC
METAR KCQC 292153Z AUTO 10007KT 10SM FEW033 SCT050 BKN110 25/09
A3030 RMK AO2 SLP156 T02500089





000
SAUS45 KABQ 292154
MTRTCS
METAR KTCS 292153Z AUTO 16010G18KT 10SM CLR 34/07 A3008 RMK AO2
SLP085 T03440067 TSNO





000
SAUS45 KABQ 292055
MTRCQC
METAR KCQC 292053Z AUTO 08008KT 10SM SCT110 23/09 A3031 RMK AO2
RAB02E14 SLP160 P0000 60000 T02330094 56011





000
SAUS45 KABQ 292055
MTRCQC
METAR KCQC 292053Z AUTO 08008KT 10SM SCT110 23/09 A3031 RMK AO2
RAB02E14 SLP160 P0000 60000 T02330094 56011





000
SAUS45 KABQ 292054
MTRTCS
METAR KTCS 292053Z AUTO VRB06KT 10SM CLR 35/08 A3010 RMK AO2 SLP092
T03500083 58021 TSNO





000
SAUS45 KABQ 292001 COR
MTRCQC
METAR KCQC 291953Z AUTO 09006KT 10SM FEW070 SCT110 25/08 A3033 RMK
AO2 SLP160 T02500078





000
SAUS45 KABQ 291959 COR
MTRCQC
METAR KCQC 291953Z AUTO 09006KT 10SM FEW070 SCT110 25/08 A3033 RMK
AO2 SLP160 T02500078





000
SAUS45 KABQ 291958 COR
MTRCQC
METAR KCQC 291953Z AUTO 09006KT 10SM FEW070 SCT110 25/08 A3033 RMK
AO2 SLP160 T02500078





000
SAUS45 KABQ 291956 COR
MTRCQC
METAR KCQC 291953Z AUTO 09006KT 10SM FEW070 SCT110 25/08 A3033 RMK
AO2 SLP160 T02500078





000
SAUS45 KABQ 291955
MTRCQC
METAR KCQC 291953Z AUTO 09006KT 10SM FEW070 SCT110 25/08 A3033 RMK
AO2 SLP160 T02500078





000
SAUS45 KABQ 291955 COR
MTRCQC
METAR KCQC 291953Z AUTO 09006KT 10SM FEW070 SCT110 25/08 A3033 RMK
AO2 SLP160 T02500078





000
SAUS45 KABQ 291954
MTRTCS
METAR KTCS 291953Z AUTO 06008KT 10SM CLR 34/08 A3013 RMK AO2 SLP105
T03390083 TSNO





000
SAUS45 KABQ 291855 COR
MTRTCS
METAR KTCS 291853Z AUTO 10008KT 10SM CLR 32/08 A3016 RMK AO2 SLP112
T03220083 TSNO





000
SAUS45 KABQ 291854
MTRCQC
METAR KCQC 291853Z AUTO 16007KT 10SM FEW070 26/08 A3034 RMK AO2
SLP164 T02610083





000
SAUS45 KABQ 291754
MTRCQC
METAR KCQC 291753Z AUTO VRB05KT 10SM CLR 25/08 A3035 RMK AO2 SLP172
T02500083 10256 20156 56002





000
SAUS45 KABQ 291754
MTRTCS
METAR KTCS 291753Z AUTO 00000KT 10SM SCT110 30/07 A3017 RMK AO2
SLP119 T03000067 10311 20200 58003 TSNO





000
SAUS45 KABQ 291754
MTRCQC
METAR KCQC 291753Z AUTO VRB05KT 10SM CLR 25/08 A3035 RMK AO2 SLP172
T02500083 10256 20156 56002





000
SAUS45 KABQ 291754
MTRTCS
METAR KTCS 291753Z AUTO 00000KT 10SM SCT110 30/07 A3017 RMK AO2
SLP119 T03000067 10311 20200 58003 TSNO





000
SAUS45 KABQ 291658 COR
MTRCQC
METAR KCQC 291653Z AUTO VRB04KT 10SM CLR 24/08 A3035 RMK AO2 SLP173
T02440083





000
SAUS45 KABQ 291654
MTRTCS
METAR KTCS 291653Z AUTO VRB03KT 10SM CLR 29/07 A3018 RMK AO2 SLP120
T02940072 TSNO





000
SAUS45 KABQ 291554
MTRTCS
METAR KTCS 291553Z AUTO 16006KT 10SM CLR 28/08 A3019 RMK AO2 SLP126
T02780078 TSNO





000
SAUS45 KABQ 291554
MTRCQC
METAR KCQC 291553Z AUTO VRB06KT 10SM CLR 23/09 A3036 RMK AO2 SLP172
T02330089





000
SAUS45 KABQ 291455 COR
MTRTCS
METAR KTCS 291453Z AUTO 16004KT 10SM CLR 26/08 A3018 RMK AO2 SLP125
T02610083 50006 TSNO





000
SAUS45 KABQ 291454
MTRCQC
METAR KCQC 291453Z AUTO 08008KT 10SM CLR 22/09 A3036 RMK AO2 SLP175
T02170089 53011





000
SAUS45 KABQ 291354
MTRCQC
METAR KCQC 291353Z AUTO 09008KT 10SM CLR 21/07 A3035 RMK AO2 SLP166
T02060072





000
SAUS45 KABQ 291354
MTRTCS
METAR KTCS 291353Z AUTO 00000KT 10SM CLR 24/10 A3019 RMK AO2 SLP127
T02390100 TSNO





000
SAUS45 KABQ 291254
MTRCQC
METAR KCQC 291253Z AUTO 07007KT 10SM CLR 18/07 A3033 RMK AO2 SLP162
T01830067





000
SAUS45 KABQ 291254
MTRTCS
METAR KTCS 291253Z AUTO 00000KT 10SM CLR 20/10 A3018 RMK AO2 SLP128
T02000100 TSNO





000
SAUS45 KABQ 291254
MTRCQC
METAR KCQC 291253Z AUTO 07007KT 10SM CLR 18/07 A3033 RMK AO2 SLP162
T01830067





000
SAUS45 KABQ 291254
MTRTCS
METAR KTCS 291253Z AUTO 00000KT 10SM CLR 20/10 A3018 RMK AO2 SLP128
T02000100 TSNO





000
SAUS45 KABQ 291154
MTRTCS
METAR KTCS 291153Z AUTO 25004KT 10SM CLR 22/08 A3016 RMK AO2 SLP120
T02170078 10278 20206 53000 TSNO





000
SAUS45 KABQ 291154
MTRTCS
METAR KTCS 291153Z AUTO 25004KT 10SM CLR 22/08 A3016 RMK AO2 SLP120
T02170078 10278 20206 53000 TSNO





000
SAUS45 KABQ 291154
MTRCQC
METAR KCQC 291153Z AUTO 09004KT 10SM CLR 17/06 A3032 RMK AO2 SLP161
T01670061 10194 20156 56004





000
SAUS45 KABQ 291154
MTRCQC
METAR KCQC 291153Z AUTO 09004KT 10SM CLR 17/06 A3032 RMK AO2 SLP161
T01670061 10194 20156 56004





000
SAUS45 KABQ 291055
MTRTCS
METAR KTCS 291053Z AUTO 12003KT 10SM CLR 22/09 A3016 RMK AO2 SLP119
T02170094 TSNO





000
SAUS45 KABQ 291055
MTRTCS
METAR KTCS 291053Z AUTO 12003KT 10SM CLR 22/09 A3016 RMK AO2 SLP119
T02170094 TSNO





000
SAUS45 KABQ 291054
MTRCQC
METAR KCQC 291053Z AUTO 05011KT 10SM CLR 18/06 A3032 RMK AO2 SLP159
T01780056





000
SAUS45 KABQ 291054
MTRCQC
METAR KCQC 291053Z AUTO 05011KT 10SM CLR 18/06 A3032 RMK AO2 SLP159
T01780056





000
SAUS45 KABQ 290954
MTRCQC
METAR KCQC 290953Z AUTO 00000KT 10SM CLR 17/06 A3033 RMK AO2 SLP161
T01670056





000
SAUS45 KABQ 290954
MTRTCS
METAR KTCS 290953Z AUTO 00000KT 10SM CLR 23/09 A3017 RMK AO2 SLP117
T02330094 TSNO





000
SAUS45 KABQ 290857 COR
MTRCQC
METAR KCQC 290853Z AUTO 06007KT 10SM BKN120 18/06 A3033 RMK AO2
SLP159 T01830056 50001





000
SAUS45 KABQ 290854 COR
MTRCQC
METAR KCQC 290853Z AUTO 06007KT 10SM BKN120 18/06 A3033 RMK AO2
SLP159 T01830056 50001





000
SAUS45 KABQ 290854
MTRTCS
METAR KTCS 290853Z AUTO 00000KT 10SM CLR 24/09 A3016 RMK AO2 SLP116
T02440089 53010 TSNO





000
SAUS45 KABQ 290854 COR
MTRCQC
METAR KCQC 290853Z AUTO 06007KT 10SM BKN120 18/06 A3033 RMK AO2
SLP159 T01830056 50001





000
SAUS45 KABQ 290854
MTRTCS
METAR KTCS 290853Z AUTO 00000KT 10SM CLR 24/09 A3016 RMK AO2 SLP116
T02440089 53010 TSNO





000
SAUS45 KABQ 290853
MTRCQC
METAR KCQC 290853Z AUTO 06007KT 10SM BKN120 18/06 A3033 RMK AO2
SLP159 T01830056 50001





000
SAUS45 KABQ 290754
MTRCQC
METAR KCQC 290753Z AUTO 06011KT 10SM FEW110 19/05 A3034 RMK AO2
SLP161 T01890050





000
SAUS45 KABQ 290754
MTRTCS
METAR KTCS 290753Z AUTO 08006KT 10SM CLR 24/13 A3015 RMK AO2 SLP114
T02390128 TSNO





000
SAUS45 KABQ 290754
MTRTCS
METAR KTCS 290753Z AUTO 08006KT 10SM CLR 24/13 A3015 RMK AO2 SLP114
T02390128 TSNO





000
SAUS45 KABQ 290754
MTRCQC
METAR KCQC 290753Z AUTO 06011KT 10SM FEW110 19/05 A3034 RMK AO2
SLP161 T01890050





000
SAUS45 KABQ 290655
MTRTCS
METAR KTCS 290653Z AUTO 18004KT 10SM CLR 27/11 A3013 RMK AO2 SLP105
T02670106 403390178 TSNO





000
SAUS45 KABQ 290655
MTRTCS
METAR KTCS 290653Z AUTO 18004KT 10SM CLR 27/11 A3013 RMK AO2 SLP105
T02670106 403390178 TSNO





000
SAUS45 KABQ 290654
MTRCQC
METAR KCQC 290653Z AUTO 06009KT 10SM CLR 18/06 A3033 RMK AO2 SLP162
T01830056 402830128





000
SAUS45 KABQ 290654
MTRCQC
METAR KCQC 290653Z AUTO 06009KT 10SM CLR 18/06 A3033 RMK AO2 SLP162
T01830056 402830128





000
SAUS45 KABQ 290554
MTRTCS
METAR KTCS 290553Z AUTO 15004KT 10SM CLR 28/09 A3013 RMK AO2 SLP105
T02780094 10333 20278 50012 TSNO





000
SAUS45 KABQ 290554
MTRCQC
METAR KCQC 290553Z AUTO 07006KT 10SM CLR 18/07 A3033 RMK AO2 SLP163
T01780072 10267 20178 50007





000
SAUS45 KABQ 290554
MTRTCS
METAR KTCS 290553Z AUTO 15004KT 10SM CLR 28/09 A3013 RMK AO2 SLP105
T02780094 10333 20278 50012 TSNO





000
SAUS45 KABQ 290554
MTRCQC
METAR KCQC 290553Z AUTO 07006KT 10SM CLR 18/07 A3033 RMK AO2 SLP163
T01780072 10267 20178 50007





000
SAUS45 KABQ 290454
MTRTCS
METAR KTCS 290453Z AUTO 00000KT 10SM BKN110 29/09 A3014 RMK AO2
SLP107 T02890094 TSNO





000
SAUS45 KABQ 290454
MTRCQC
METAR KCQC 290453Z AUTO 06007KT 10SM CLR 19/07 A3034 RMK AO2 SLP166
T01890072





000
SAUS45 KABQ 290354
MTRCQC
METAR KCQC 290353Z AUTO 10004KT 10SM CLR 21/06 A3032 RMK AO2 SLP157
T02110056





000
SAUS45 KABQ 290354
MTRCQC
METAR KCQC 290353Z AUTO 10004KT 10SM CLR 21/06 A3032 RMK AO2 SLP157
T02110056





000
SAUS45 KABQ 290354
MTRTCS
METAR KTCS 290353Z AUTO 00000KT 10SM BKN110 29/09 A3012 RMK AO2
SLP104 T02890089 TSNO





000
SAUS45 KABQ 290254
MTRCQC
METAR KCQC 290253Z AUTO 06004KT 10SM CLR 22/06 A3031 RMK AO2 SLP154
T02170061 51006





000
SAUS45 KABQ 290254
MTRTCS
METAR KTCS 290253Z AUTO 02003KT 10SM CLR 29/09 A3009 RMK AO2 SLP094
T02940089 53004 TSNO





000
SAUS45 KABQ 290254
MTRCQC
METAR KCQC 290253Z AUTO 06004KT 10SM CLR 22/06 A3031 RMK AO2 SLP154
T02170061 51006





000
SAUS45 KABQ 290254
MTRTCS
METAR KTCS 290253Z AUTO 02003KT 10SM CLR 29/09 A3009 RMK AO2 SLP094
T02940089 53004 TSNO





000
SAUS45 KABQ 290154
MTRCQC
METAR KCQC 290153Z AUTO 01004KT 10SM CLR 24/07 A3030 RMK AO2 SLP153
T02440072





000
SAUS45 KABQ 290154
MTRTCS
METAR KTCS 290153Z AUTO 04004KT 10SM CLR 31/08 A3009 RMK AO2 SLP094
T03110078 TSNO





000
SAUS45 KABQ 290054
MTRCQC
METAR KCQC 290053Z AUTO 04006KT 10SM CLR 26/06 A3029 RMK AO2 SLP155
T02560061





000
SAUS45 KABQ 290054
MTRTCS
METAR KTCS 290053Z AUTO VRB03KT 10SM CLR 32/08 A3008 RMK AO2 SLP094
T03170078 TSNO





000
SAUS45 KABQ 290054
MTRCQC
METAR KCQC 290053Z AUTO 04006KT 10SM CLR 26/06 A3029 RMK AO2 SLP155
T02560061





000
SAUS45 KABQ 290054
MTRTCS
METAR KTCS 290053Z AUTO VRB03KT 10SM CLR 32/08 A3008 RMK AO2 SLP094
T03170078 TSNO





000
SAUS45 KABQ 290001 COR
MTRCQC
METAR KCQC 282353Z AUTO 02008KT 10SM CLR 27/06 A3028 RMK AO2 SLP155
T02670061 10283 20261 56009





000
SAUS45 KABQ 290001 COR
MTRCQC
METAR KCQC 282353Z AUTO 02008KT 10SM CLR 27/06 A3028 RMK AO2 SLP155
T02670061 10283 20261 56009





000
SAUS45 KABQ 282359 COR
MTRCQC
METAR KCQC 282353Z AUTO 02008KT 10SM CLR 27/06 A3028 RMK AO2 SLP155
T02670061 10283 20261 56009





000
SAUS45 KABQ 282359 COR
MTRCQC
METAR KCQC 282353Z AUTO 02008KT 10SM CLR 27/06 A3028 RMK AO2 SLP155
T02670061 10283 20261 56009





000
SAUS45 KABQ 282358 COR
MTRCQC
METAR KCQC 282353Z AUTO 02008KT 10SM CLR 27/06 A3028 RMK AO2 SLP155
T02670061 10283 20261 56009





000
SAUS45 KABQ 282358 COR
MTRCQC
METAR KCQC 282353Z AUTO 02008KT 10SM CLR 27/06 A3028 RMK AO2 SLP155
T02670061 10283 20261 56009





000
SAUS45 KABQ 282356 COR
MTRCQC
METAR KCQC 282353Z AUTO 02008KT 10SM CLR 27/06 A3028 RMK AO2 SLP155
T02670061 10283 20261 56009





000
SAUS45 KABQ 282356 COR
MTRCQC
METAR KCQC 282353Z AUTO 02008KT 10SM CLR 27/06 A3028 RMK AO2 SLP155
T02670061 10283 20261 56009





000
SAUS45 KABQ 282355 COR
MTRCQC
METAR KCQC 282353Z AUTO 02008KT 10SM CLR 27/06 A3028 RMK AO2 SLP155
T02670061 10283 20261 56009





000
SAUS45 KABQ 282355 COR
MTRCQC
METAR KCQC 282353Z AUTO 02008KT 10SM CLR 27/06 A3028 RMK AO2 SLP155
T02670061 10283 20261 56009





000
SAUS45 KABQ 282354
MTRCQC
METAR KCQC 282353Z AUTO 02008KT 10SM CLR 27/06 A3028 RMK AO2 SLP155
T02670061 10283 20261 56009





000
SAUS45 KABQ 282354
MTRCQC
METAR KCQC 282353Z AUTO 02008KT 10SM CLR 27/06 A3028 RMK AO2 SLP155
T02670061 10283 20261 56009





000
SAUS45 KABQ 282354
MTRTCS
METAR KTCS 282353Z AUTO VRB04KT 10SM CLR 33/09 A3008 RMK AO2 SLP094
T03280089 10339 20289 58021 TSNO





000
SAUS45 KABQ 282354
MTRTCS
METAR KTCS 282353Z AUTO VRB04KT 10SM CLR 33/09 A3008 RMK AO2 SLP094
T03280089 10339 20289 58021 TSNO





000
SAUS45 KABQ 282258 COR
MTRCQC
METAR KCQC 282253Z AUTO 02009KT 10SM CLR 27/06 A3029 RMK AO2 SLP154
T02670056





000
SAUS45 KABQ 282256 COR
MTRCQC
METAR KCQC 282253Z AUTO 02009KT 10SM CLR 27/06 A3029 RMK AO2 SLP154
T02670056





000
SAUS45 KABQ 282255 COR
MTRCQC
METAR KCQC 282253Z AUTO 02009KT 10SM CLR 27/06 A3029 RMK AO2 SLP154
T02670056





000
SAUS45 KABQ 282255 COR
MTRCQC
METAR KCQC 282253Z AUTO 02009KT 10SM CLR 27/06 A3029 RMK AO2 SLP154
T02670056





000
SAUS45 KABQ 282254
MTRTCS
METAR KTCS 282253Z AUTO 11008KT 10SM CLR 33/09 A3010 RMK AO2 SLP101
T03280089 TSNO





000
SAUS45 KABQ 282254
MTRCQC
METAR KCQC 282253Z AUTO 02009KT 10SM CLR 27/06 A3029 RMK AO2 SLP154
T02670056





000
SAUS45 KABQ 282154
MTRCQC
METAR KCQC 282153Z AUTO 36009KT 10SM CLR 28/07 A3030 RMK AO2 SLP155
T02830067





000
SAUS45 KABQ 282154
MTRTCS
METAR KTCS 282153Z AUTO 08007G14KT 050V120 10SM CLR 33/09 A3013 RMK
AO2 SLP108 T03280094 TSNO





000
SAUS45 KABQ 282054
MTRCQC
METAR KCQC 282053Z AUTO 31003KT 10SM SCT080 SCT095 28/07 A3032 RMK
AO2 SLP160 T02780067 56013





000
SAUS45 KABQ 282054
MTRTCS
METAR KTCS 282053Z AUTO 10SM CLR 32/07 A3015 RMK AO2 SLP115
T03220072 58025 TSNO





000
SAUS45 KABQ 281955
MTRTCS
METAR KTCS 281953Z AUTO VRB05KT 10SM CLR 31/12 A3018 RMK AO2 SLP127
T03060117 TSNO





000
SAUS45 KABQ 281954
MTRCQC
METAR KCQC 281953Z AUTO 31004KT 10SM BKN090 27/07 A3033 RMK AO2
SLP165 T02720072





000
SAUS45 KABQ 281854
MTRTCS
METAR KTCS 281853Z AUTO 00000KT 10SM CLR 29/12 A3021 RMK AO2 SLP137
T02940117 TSNO





000
SAUS45 KABQ 281854
MTRCQC
METAR KCQC 281853Z AUTO 12006KT 10SM CLR 27/08 A3035 RMK AO2 SLP170
T02720083





000
SAUS45 KABQ 281755
MTRCQC
METAR KCQC 281753Z AUTO 32005KT 10SM CLR 26/08 A3037 RMK AO2 SLP179
T02610083 10261 20128 58004





000
SAUS45 KABQ 281754
MTRTCS
METAR KTCS 281753Z AUTO 18007KT 120V230 10SM CLR 28/13 A3024 RMK AO2
SLP148 T02830128 10289 20178 56008 TSNO





000
SAUS45 KABQ 281658 COR
MTRCQC
METAR KCQC 281653Z AUTO 30008KT 10SM CLR 24/12 A3037 RMK AO2 SLP184
T02440117





000
SAUS45 KABQ 281658 COR
MTRCQC
METAR KCQC 281653Z AUTO 30008KT 10SM CLR 24/12 A3037 RMK AO2 SLP184
T02440117





000
SAUS45 KABQ 281656 COR
MTRCQC
METAR KCQC 281653Z AUTO 30008KT 10SM CLR 24/12 A3037 RMK AO2 SLP184
T02440117





000
SAUS45 KABQ 281656 COR
MTRCQC
METAR KCQC 281653Z AUTO 30008KT 10SM CLR 24/12 A3037 RMK AO2 SLP184
T02440117





000
SAUS45 KABQ 281655 COR
MTRCQC
METAR KCQC 281653Z AUTO 30008KT 10SM CLR 24/12 A3037 RMK AO2 SLP184
T02440117





000
SAUS45 KABQ 281654
MTRCQC
METAR KCQC 281653Z AUTO 30008KT 10SM CLR 24/12 A3037 RMK AO2 SLP184
T02440117





000
SAUS45 KABQ 281654
MTRTCS
METAR KTCS 281653Z AUTO 17007KT 10SM CLR 28/13 A3024 RMK AO2 SLP150
T02780128 TSNO





000
SAUS45 KABQ 281555
MTRCQC
METAR KCQC 281553Z AUTO 26009KT 10SM CLR 23/11 A3037 RMK AO2 SLP187
T02280111





000
SAUS45 KABQ 281554
MTRTCS
METAR KTCS 281553Z AUTO 00000KT 10SM CLR 26/14 A3026 RMK AO2 SLP157
T02610139 TSNO





000
SAUS45 KABQ 281454
MTRTCS
METAR KTCS 281453Z AUTO VRB03KT 10SM CLR 24/13 A3026 RMK AO2 SLP160
T02440128 51012 TSNO





000
SAUS45 KABQ 281454
MTRCQC
METAR KCQC 281453Z AUTO 27008KT 10SM CLR 22/11 A3038 RMK AO2 SLP186
T02220111 51004





000
SAUS45 KABQ 281354
MTRCQC
METAR KCQC 281353Z AUTO 28007KT 10SM CLR 20/11 A3038 RMK AO2 SLP187
T02000111





000
SAUS45 KABQ 281354
MTRTCS
METAR KTCS 281353Z AUTO 30003KT 10SM CLR 22/13 A3026 RMK AO2 SLP160
T02220128 TSNO





000
SAUS45 KABQ 281254
MTRTCS
METAR KTCS 281253Z AUTO 30003KT 10SM CLR 19/13 A3024 RMK AO2 SLP158
T01940128 TSNO





000
SAUS45 KABQ 281254
MTRCQC
METAR KCQC 281253Z AUTO 26007KT 10SM CLR 16/11 A3037 RMK AO2 SLP203
T01560111





000
SAUS45 KABQ 281155
MTRTCS
METAR KTCS 281153Z AUTO 05004KT 10SM CLR 18/13 A3022 RMK AO2 SLP153
70011 T01830128 10244 20183 53004 TSNO





000
SAUS45 KABQ 281154
MTRCQC
METAR KCQC 281153Z AUTO 25005KT 10SM CLR 13/10 A3036 RMK AO2 SLP204
70021 T01330100 10167 20133 50001





000
SAUS45 KABQ 281055
MTRTCS
METAR KTCS 281053Z AUTO 31007KT 10SM CLR 19/13 A3020 RMK AO2 SLP145
T01940133 TSNO





000
SAUS45 KABQ 281055
MTRTCS
METAR KTCS 281053Z AUTO 31007KT 10SM CLR 19/13 A3020 RMK AO2 SLP145
T01940133 TSNO





000
SAUS45 KABQ 281054
MTRCQC
METAR KCQC 281053Z AUTO 22004KT 10SM CLR 14/11 A3037 RMK AO2 SLP189
T01390106





000
SAUS45 KABQ 281054
MTRCQC
METAR KCQC 281053Z AUTO 22004KT 10SM CLR 14/11 A3037 RMK AO2 SLP189
T01390106





000
SAUS45 KABQ 280954
MTRCQC
METAR KCQC 280953Z AUTO 19006KT 10SM CLR 15/11 A3036 RMK AO2 SLP179
T01500111





000
SAUS45 KABQ 280954
MTRTCS
METAR KTCS 280953Z AUTO 31006KT 10SM CLR 21/14 A3021 RMK AO2 SLP144
T02060139 TSNO





000
SAUS45 KABQ 280854
MTRCQC
METAR KCQC 280853Z AUTO 20007KT 10SM CLR 16/11 A3036 RMK AO2 SLP182
T01560106 55004





000
SAUS45 KABQ 280854
MTRTCS
METAR KTCS 280853Z AUTO 33003KT 10SM CLR 22/14 A3021 RMK AO2 SLP142
T02170144 55007 TSNO





000
SAUS45 KABQ 280754
MTRCQC
METAR KCQC 280753Z AUTO 20010KT 10SM CLR 16/11 A3036 RMK AO2 SLP182
T01610106





000
SAUS45 KABQ 280754
MTRTCS
METAR KTCS 280753Z AUTO 00000KT 10SM CLR 23/13 A3020 RMK AO2 SLP140
T02280133 TSNO





000
SAUS45 KABQ 280754
MTRCQC
METAR KCQC 280753Z AUTO 20010KT 10SM CLR 16/11 A3036 RMK AO2 SLP182
T01610106





000
SAUS45 KABQ 280754
MTRTCS
METAR KTCS 280753Z AUTO 00000KT 10SM CLR 23/13 A3020 RMK AO2 SLP140
T02280133 TSNO





000
SAUS45 KABQ 280654
MTRCQC
METAR KCQC 280653Z AUTO 19008KT 10SM CLR 16/11 A3037 RMK AO2 SLP185
T01610111 402610144





000
SAUS45 KABQ 280654
MTRTCS
METAR KTCS 280653Z AUTO 03004KT 10SM CLR 23/13 A3022 RMK AO2 SLP149
T02330128 402890178 TSNO





000
SAUS45 KABQ 280654
MTRCQC
METAR KCQC 280653Z AUTO 19008KT 10SM CLR 16/11 A3037 RMK AO2 SLP185
T01610111 402610144





000
SAUS45 KABQ 280654
MTRTCS
METAR KTCS 280653Z AUTO 03004KT 10SM CLR 23/13 A3022 RMK AO2 SLP149
T02330128 402890178 TSNO





000
SAUS45 KABQ 280554
MTRTCS
METAR KTCS 280553Z AUTO 35005KT 10SM BKN085 OVC110 24/16 A3023 RMK
AO2 SLP152 T02390161 10283 20233 51016 TSNO





000
SAUS45 KABQ 280554
MTRCQC
METAR KCQC 280553Z AUTO 15005KT 10SM CLR 16/13 A3038 RMK AO2 SLP193
60021 T01560128 10200 20144 50006





000
SAUS45 KABQ 280554
MTRTCS
METAR KTCS 280553Z AUTO 35005KT 10SM BKN085 OVC110 24/16 A3023 RMK
AO2 SLP152 T02390161 10283 20233 51016 TSNO





000
SAUS45 KABQ 280554
MTRCQC
METAR KCQC 280553Z AUTO 15005KT 10SM CLR 16/13 A3038 RMK AO2 SLP193
60021 T01560128 10200 20144 50006





000
SAUS45 KABQ 280455
MTRCQC
METAR KCQC 280453Z AUTO 10005KT 10SM CLR 17/12 A3039 RMK AO2 SLP200
T01670122





000
SAUS45 KABQ 280454
MTRTCS
METAR KTCS 280453Z AUTO 03004KT 10SM BKN110 24/17 A3022 RMK AO2
SLP152 T02390167 TSNO





000
SAUS45 KABQ 280354
MTRCQC
METAR KCQC 280353Z AUTO 07005KT 10SM CLR 17/12 A3039 RMK AO2 WSHFT
0247 SLP199 T01720122





000
SAUS45 KABQ 280354
MTRTCS
METAR KTCS 280353Z AUTO 00000KT 10SM CLR 25/16 A3021 RMK AO2 SLP144
T02500161 TSNO





000
SAUS45 KABQ 280308
MTRCQC
SPECI KCQC 280307Z AUTO 09014KT 10SM CLR 18/11 A3036 RMK AO2 WSHFT
0247 T01830111





000
SAUS45 KABQ 280308
MTRCQC
SPECI KCQC 280307Z AUTO 09014KT 10SM CLR 18/11 A3036 RMK AO2 WSHFT
0247 T01830111





000
SAUS45 KABQ 280254
MTRCQC
METAR KCQC 280253Z AUTO 10013G18KT 10SM CLR 19/08 A3035 RMK AO2
RAE04 SLP192 P0000 60021 T01890083 56007





000
SAUS45 KABQ 280254
MTRTCS
METAR KTCS 280253Z AUTO 00000KT 10SM CLR 27/14 A3018 RMK AO2 SLP133
T02670144 53003 TSNO





000
SAUS45 KABQ 280201 COR
MTRCQC
METAR KCQC 280153Z AUTO 22009G25KT 10SM -RA SCT050 OVC075 20/06
A3036 RMK AO2 PK WND 01032/0105 WSHFT 0129 RAB0058 SLP193 P0001
T02000061





000
SAUS45 KABQ 280159 COR
MTRCQC
METAR KCQC 280153Z AUTO 22009G25KT 10SM -RA SCT050 OVC075 20/06
A3036 RMK AO2 PK WND 01032/0105 WSHFT 0129 RAB0058 SLP193 P0001
T02000061





000
SAUS45 KABQ 280158 COR
MTRCQC
METAR KCQC 280153Z AUTO 22009G25KT 10SM -RA SCT050 OVC075 20/06
A3036 RMK AO2 PK WND 01032/0105 WSHFT 0129 RAB0058 SLP193 P0001
T02000061





000
SAUS45 KABQ 280156 COR
MTRCQC
METAR KCQC 280153Z AUTO 22009G25KT 10SM -RA SCT050 OVC075 20/06
A3036 RMK AO2 PK WND 01032/0105 WSHFT 0129 RAB0058 SLP193 P0001
T02000061





000
SAUS45 KABQ 280155 COR
MTRCQC
METAR KCQC 280153Z AUTO 22009G25KT 10SM -RA SCT050 OVC075 20/06
A3036 RMK AO2 PK WND 01032/0105 WSHFT 0129 RAB0058 SLP193 P0001
T02000061





000
SAUS45 KABQ 280154
MTRTCS
METAR KTCS 280153Z AUTO 24003KT 10SM CLR 28/12 A3017 RMK AO2 SLP133
T02780122 TSNO





000
SAUS45 KABQ 280154
MTRTCS
METAR KTCS 280153Z AUTO 24003KT 10SM CLR 28/12 A3017 RMK AO2 SLP133
T02780122 TSNO





000
SAUS45 KABQ 280154
MTRCQC
METAR KCQC 280153Z AUTO 22009G25KT 10SM -RA SCT050 OVC075 20/06
A3036 RMK AO2 PK WND 01032/0105 WSHFT 0129 RAB0058 SLP193 P0001
T02000061





000
SAUS45 KABQ 280154
MTRCQC
METAR KCQC 280153Z AUTO 22009G25KT 10SM -RA SCT050 OVC075 20/06
A3036 RMK AO2 PK WND 01032/0105 WSHFT 0129 RAB0058 SLP193 P0001
T02000061





000
SAUS45 KABQ 280151
MTRCQC
SPECI KCQC 280149Z AUTO 22014G25KT 10SM -RA SCT060 BKN075 OVC090
20/06 A3036 RMK AO2 PK WND 01032/0105 WSHFT 0129 RAB0058 P0001





000
SAUS45 KABQ 280143
MTRCQC
SPECI KCQC 280142Z AUTO 25015KT 10SM -RA FEW060 BKN075 OVC100 18/08
A3036 RMK AO2 PK WND 01032/0105 WSHFT 0122 RAB0058 P0000 T01830083





000
SAUS45 KABQ 280055
MTRCQC
METAR KCQC 280053Z AUTO 03010KT 10SM SCT080 OVC110 18/11 A3038 RMK
AO2 RAE51 SLP204 P0020 T01780106





000
SAUS45 KABQ 280055
MTRCQC
METAR KCQC 280053Z AUTO 03010KT 10SM SCT080 OVC110 18/11 A3038 RMK
AO2 RAE51 SLP204 P0020 T01780106





000
SAUS45 KABQ 280054
MTRTCS
METAR KTCS 280053Z AUTO 00000KT 10SM CLR 28/12 A3016 RMK AO2 SLP129
T02830117 TSNO





000
SAUS45 KABQ 280003 COR
MTRCQC
METAR KCQC 272353Z AUTO 05016G30KT 9SM -RA FEW042 BKN065 OVC090
18/10 A3039 RMK AO2 PK WND 03030/2345 WSHFT 2337 RAB50 SLP208 P0000
60000 T01780100 10261 20178 53005





000
SAUS45 KABQ 280003 COR
MTRCQC
METAR KCQC 272353Z AUTO 05016G30KT 9SM -RA FEW042 BKN065 OVC090
18/10 A3039 RMK AO2 PK WND 03030/2345 WSHFT 2337 RAB50 SLP208 P0000
60000 T01780100 10261 20178 53005





000
SAUS45 KABQ 280002 COR
MTRCQC
METAR KCQC 272353Z AUTO 05016G30KT 9SM -RA FEW042 BKN065 OVC090
18/10 A3039 RMK AO2 PK WND 03030/2345 WSHFT 2337 RAB50 SLP208 P0000
60000 T01780100 10261 20178 53005





000
SAUS45 KABQ 272359 COR
MTRCQC
METAR KCQC 272353Z AUTO 05016G30KT 9SM -RA FEW042 BKN065 OVC090
18/10 A3039 RMK AO2 PK WND 03030/2345 WSHFT 2337 RAB50 SLP208 P0000
60000 T01780100 10261 20178 53005





000
SAUS45 KABQ 272359 COR
MTRCQC
METAR KCQC 272353Z AUTO 05016G30KT 9SM -RA FEW042 BKN065 OVC090
18/10 A3039 RMK AO2 PK WND 03030/2345 WSHFT 2337 RAB50 SLP208 P0000
60000 T01780100 10261 20178 53005





000
SAUS45 KABQ 272358 COR
MTRCQC
METAR KCQC 272353Z AUTO 05016G30KT 9SM -RA FEW042 BKN065 OVC090
18/10 A3039 RMK AO2 PK WND 03030/2345 WSHFT 2337 RAB50 SLP208 P0000
60000 T01780100 10261 20178 53005





000
SAUS45 KABQ 272358 COR
MTRCQC
METAR KCQC 272353Z AUTO 05016G30KT 9SM -RA FEW042 BKN065 OVC090
18/10 A3039 RMK AO2 PK WND 03030/2345 WSHFT 2337 RAB50 SLP208 P0000
60000 T01780100 10261 20178 53005





000
SAUS45 KABQ 272356 COR
MTRCQC
METAR KCQC 272353Z AUTO 05016G30KT 9SM -RA FEW042 BKN065 OVC090
18/10 A3039 RMK AO2 PK WND 03030/2345 WSHFT 2337 RAB50 SLP208 P0000
60000 T01780100 10261 20178 53005





000
SAUS45 KABQ 272355 COR
MTRCQC
METAR KCQC 272353Z AUTO 05016G30KT 9SM -RA FEW042 BKN065 OVC090
18/10 A3039 RMK AO2 PK WND 03030/2345 WSHFT 2337 RAB50 SLP208 P0000
60000 T01780100 10261 20178 53005





000
SAUS45 KABQ 272355 COR
MTRCQC
METAR KCQC 272353Z AUTO 05016G30KT 9SM -RA FEW042 BKN065 OVC090
18/10 A3039 RMK AO2 PK WND 03030/2345 WSHFT 2337 RAB50 SLP208 P0000
60000 T01780100 10261 20178 53005





000
SAUS45 KABQ 272354
MTRCQC
METAR KCQC 272353Z AUTO 05016G30KT 9SM -RA FEW042 BKN065 OVC090
18/10 A3039 RMK AO2 PK WND 03030/2345 WSHFT 2337 RAB50 SLP208 P0000
60000 T01780100 10261 20178 53005





000
SAUS45 KABQ 272354
MTRTCS
METAR KTCS 272353Z AUTO VRB04KT 10SM CLR 28/12 A3017 RMK AO2 SLP133
T02830122 10289 20239 56023 TSNO





000
SAUS45 KABQ 272354
MTRTCS
METAR KTCS 272353Z AUTO VRB04KT 10SM CLR 28/12 A3017 RMK AO2 SLP133
T02830122 10289 20239 56023 TSNO





000
SAUS45 KABQ 272255
MTRCQC
METAR KCQC 272253Z AUTO 16012KT 10SM CLR 24/11 A3034 RMK AO2 WSHFT
2210 SLP175 T02390106





000
SAUS45 KABQ 272255
MTRTCS
METAR KTCS 272253Z AUTO 00000KT 10SM CLR 28/11 A3018 RMK AO2 SLP138
T02830106 TSNO





000
SAUS45 KABQ 272231
MTRCQC
SPECI KCQC 272230Z AUTO 15011KT 10SM CLR 25/11 A3033 RMK AO2 WSHFT
2210 T02500106





000
SAUS45 KABQ 272154
MTRTCS
METAR KTCS 272153Z AUTO VRB05KT 10SM CLR 28/13 A3021 RMK AO2 SLP146
T02830128 TSNO





000
SAUS45 KABQ 272154
MTRCQC
METAR KCQC 272153Z AUTO 15004KT 10SM CLR 26/11 A3035 RMK AO2 SLP175
T02560106





000
SAUS45 KABQ 272054
MTRTCS
METAR KTCS 272053Z AUTO 00000KT 10SM CLR 28/13 A3025 RMK AO2 SLP152
T02780128 58021 TSNO





000
SAUS45 KABQ 272054
MTRCQC
METAR KCQC 272053Z AUTO 19008KT 10SM CLR 24/12 A3037 RMK AO2 SLP186
T02440117 58018





000
SAUS45 KABQ 271954
MTRTCS
METAR KTCS 271953Z AUTO 12015G19KT 10SM FEW050 27/14 A3029 RMK AO2
SLP166 T02720144 TSNO





000
SAUS45 KABQ 271954
MTRCQC
METAR KCQC 271953Z AUTO 21008G17KT 10SM FEW038 24/12 A3041 RMK AO2
SLP199 T02390122





000
SAUS45 KABQ 271854
MTRCQC
METAR KCQC 271853Z AUTO 21013KT 10SM CLR 23/12 A3043 RMK AO2 SLP207
T02330122





000
SAUS45 KABQ 271854
MTRTCS
METAR KTCS 271853Z AUTO 05010KT 10SM SCT110 26/15 A3032 RMK AO2
SLP178 T02560150 TSNO





000
SAUS45 KABQ 271755
MTRTCS
METAR KTCS 271753Z AUTO 07012KT 10SM OVC110 24/15 A3032 RMK AO2
SLP179 60011 T02440150 10250 20183 53009 TSNO





000
SAUS45 KABQ 271754
MTRCQC
METAR KCQC 271753Z AUTO 24010KT 10SM CLR 22/12 A3044 RMK AO2 SLP213
T02170122 10217 20144 55008





000
SAUS45 KABQ 271654
MTRTCS
METAR KTCS 271653Z AUTO 04005KT 10SM BKN110 24/14 A3030 RMK AO2
SLP170 T02390144 TSNO





000
SAUS45 KABQ 271654
MTRCQC
METAR KCQC 271653Z AUTO 24011KT 10SM FEW070 20/12 A3043 RMK AO2
SLP218 T02000122





000
SAUS45 KABQ 271554
MTRTCS
METAR KTCS 271553Z AUTO VRB03KT 10SM FEW120 23/14 A3029 RMK AO2
SLP166 T02330144 TSNO





000
SAUS45 KABQ 271554
MTRCQC
METAR KCQC 271553Z AUTO 22005KT 10SM SCT070 BKN095 BKN110 19/12
A3044 RMK AO2 SLP219 T01890117





000
SAUS45 KABQ 271455
MTRTCS
METAR KTCS 271453Z AUTO 04004KT 10SM FEW110 22/15 A3029 RMK AO2
SLP168 60011 T02220150 56006 TSNO





000
SAUS45 KABQ 271455
MTRTCS
METAR KTCS 271453Z AUTO 04004KT 10SM FEW110 22/15 A3029 RMK AO2
SLP168 60011 T02220150 56006 TSNO





000
SAUS45 KABQ 271454
MTRCQC
METAR KCQC 271453Z AUTO 11007KT 10SM SCT065 SCT080 BKN110 15/11
A3047 RMK AO2 SLP232 T01500111 50008





000
SAUS45 KABQ 271426
MTRCQC
SPECI KCQC 271425Z AUTO 10009KT 10SM SCT019 BKN042 OVC110 15/12
A3047 RMK AO2 T01500122





000
SAUS45 KABQ 271355
MTRCQC
METAR KCQC 271353Z AUTO 05009G18KT 10SM OVC018 16/12 A3047 RMK AO2
SLP222 T01560117





000
SAUS45 KABQ 271355
MTRCQC
METAR KCQC 271353Z AUTO 05009G18KT 10SM OVC018 16/12 A3047 RMK AO2
SLP222 T01560117





000
SAUS45 KABQ 271354
MTRTCS
METAR KTCS 271353Z AUTO 00000KT 10SM FEW090 SCT120 19/15 A3029 RMK
AO2 RAE23 SLP172 P0000 T01940150 TSNO





000
SAUS45 KABQ 271344
MTRCQC
SPECI KCQC 271343Z AUTO 05011KT 10SM FEW014 BKN020 OVC041 16/13
A3048 RMK AO2 T01560128





000
SAUS45 KABQ 271254
MTRCQC
METAR KCQC 271253Z AUTO 07006KT 10SM BKN080 16/13 A3045 RMK AO2
SLP212 T01560128





000
SAUS45 KABQ 271254
MTRTCS
METAR KTCS 271253Z AUTO 24008KT 10SM -RA FEW070 OVC100 19/14 A3027
RMK AO2 SLP163 P0011 T01890144 TSNO





    US Dept of Commerce
    National Oceanic and Atmospheric Administration
    National Weather Service
    1325 East West Highway
    Silver Spring, MD 20910
    Page Author: NWS Internet Services Team
Disclaimer
Information Quality
Credits
Glossary
Privacy Policy
Freedom of Information Act (FOIA)
About Us
Career Opportunities